sensor_id;sensor_type;location;lat;lon;timestamp;temperature;humidity
7196;DHT22;3639;51.308;5.624;2023-11-21T00:00:16;7.10;99.90
7196;DHT22;3639;51.308;5.624;2023-11-21T00:02:43;7.20;99.90
7196;DHT22;3639;51.308;5.624;2023-11-21T00:05:09;7.20;99.90
7196;DHT22;3639;51.308;5.624;2023-11-21T00:07:38;7.20;99.90
7196;DHT22;3639;51.308;5.624;2023-11-21T00:10:04;7.20;99.90
7196;DHT22;3639;51.308;5.624;2023-11-21T00:12:36;7.20;99.90
7196;DHT22;3639;51.308;5.624;2023-11-21T00:15:04;7.20;99.90
7196;DHT22;3639;51.308;5.624;2023-11-21T00:17:36;7.30;99.90
7196;DHT22;3639;51.308;5.624;2023-11-21T00:20:02;7.30;99.90
7196;DHT22;3639;51.308;5.624;2023-11-21T00:22:32;7.30;99.90
7196;DHT22;3639;51.308;5.624;2023-11-21T00:25:00;7.30;99.90
7196;DHT22;3639;51.308;5.624;2023-11-21T00:27:26;7.30;99.90
7196;DHT22;3639;51.308;5.624;2023-11-21T00:29:52;7.30;99.90
7196;DHT22;3639;51.308;5.624;2023-11-21T00:32:17;7.30;99.90
7196;DHT22;3639;51.308;5.624;2023-11-21T00:34:43;7.30;99.90
7196;DHT22;3639;51.308;5.624;2023-11-21T00:37:09;7.40;99.90
7196;DHT22;3639;51.308;5.624;2023-11-21T00:39:34;7.40;99.90
7196;DHT22;3639;51.308;5.624;2023-11-21T00:42:00;7.40;99.90
7196;DHT22;3639;51.308;5.624;2023-11-21T00:44:26;7.40;99.90
7196;DHT22;3639;51.308;5.624;2023-11-21T00:46:51;7.40;99.90
7196;DHT22;3639;51.308;5.624;2023-11-21T00:49:18;7.50;99.90
7196;DHT22;3639;51.308;5.624;2023-11-21T00:51:43;7.40;99.90
7196;DHT22;3639;51.308;5.624;2023-11-21T00:54:09;7.40;99.90
7196;DHT22;3639;51.308;5.624;2023-11-21T00:56:34;7.50;99.90
7196;DHT22;3639;51.308;5.624;2023-11-21T00:59:00;7.50;99.90
7196;DHT22;3639;51.308;5.624;2023-11-21T01:01:25;7.50;99.90
7196;DHT22;3639;51.308;5.624;2023-11-21T01:03:51;7.60;99.90
7196;DHT22;3639;51.308;5.624;2023-11-21T01:06:17;7.50;99.90
7196;DHT22;3639;51.308;5.624;2023-11-21T01:08:43;7.50;99.90
7196;DHT22;3639;51.308;5.624;2023-11-21T01:11:09;7.50;99.90
7196;DHT22;3639;51.308;5.624;2023-11-21T01:13:40;7.50;99.90
7196;DHT22;3639;51.308;5.624;2023-11-21T01:16:07;7.50;99.90
7196;DHT22;3639;51.308;5.624;2023-11-21T01:18:33;7.50;99.90
7196;DHT22;3639;51.308;5.624;2023-11-21T01:21:00;7.50;99.90
7196;DHT22;3639;51.308;5.624;2023-11-21T01:23:26;7.50;99.90
7196;DHT22;3639;51.308;5.624;2023-11-21T01:25:52;7.60;99.90
7196;DHT22;3639;51.308;5.624;2023-11-21T01:28:18;7.60;99.90
7196;DHT22;3639;51.308;5.624;2023-11-21T01:30:44;7.50;99.90
7196;DHT22;3639;51.308;5.624;2023-11-21T01:33:10;7.50;99.90
7196;DHT22;3639;51.308;5.624;2023-11-21T01:35:35;7.50;99.90
7196;DHT22;3639;51.308;5.624;2023-11-21T01:38:01;7.50;99.90
7196;DHT22;3639;51.308;5.624;2023-11-21T01:40:27;7.50;99.90
7196;DHT22;3639;51.308;5.624;2023-11-21T01:42:54;7.50;99.90
7196;DHT22;3639;51.308;5.624;2023-11-21T01:45:19;7.60;99.90
7196;DHT22;3639;51.308;5.624;2023-11-21T01:47:45;7.60;99.90
7196;DHT22;3639;51.308;5.624;2023-11-21T01:50:14;7.50;99.90
7196;DHT22;3639;51.308;5.624;2023-11-21T01:52:42;7.50;99.90
7196;DHT22;3639;51.308;5.624;2023-11-21T01:55:09;7.40;99.90
7196;DHT22;3639;51.308;5.624;2023-11-21T01:57:36;7.30;99.90
7196;DHT22;3639;51.308;5.624;2023-11-21T02:00:05;7.30;99.90
7196;DHT22;3639;51.308;5.624;2023-11-21T02:02:48;7.30;99.90
7196;DHT22;3639;51.308;5.624;2023-11-21T02:05:18;7.30;99.90
7196;DHT22;3639;51.308;5.624;2023-11-21T02:07:44;7.30;99.90
7196;DHT22;3639;51.308;5.624;2023-11-21T02:10:11;7.20;99.90
7196;DHT22;3639;51.308;5.624;2023-11-21T02:12:40;7.20;99.90
7196;DHT22;3639;51.308;5.624;2023-11-21T02:15:12;7.10;99.90
7196;DHT22;3639;51.308;5.624;2023-11-21T02:17:42;7.20;99.90
7196;DHT22;3639;51.308;5.624;2023-11-21T02:20:14;7.20;99.90
7196;DHT22;3639;51.308;5.624;2023-11-21T02:22:41;7.10;99.90
7196;DHT22;3639;51.308;5.624;2023-11-21T02:25:08;7.20;99.90
7196;DHT22;3639;51.308;5.624;2023-11-21T02:27:33;7.20;99.90
7196;DHT22;3639;51.308;5.624;2023-11-21T02:29:59;7.20;99.90
7196;DHT22;3639;51.308;5.624;2023-11-21T02:32:26;7.20;99.90
7196;DHT22;3639;51.308;5.624;2023-11-21T02:34:52;7.20;99.90
7196;DHT22;3639;51.308;5.624;2023-11-21T02:37:21;7.20;99.90
7196;DHT22;3639;51.308;5.624;2023-11-21T02:39:46;7.30;99.90
7196;DHT22;3639;51.308;5.624;2023-11-21T02:42:12;7.30;99.90
7196;DHT22;3639;51.308;5.624;2023-11-21T02:44:37;7.40;99.90
7196;DHT22;3639;51.308;5.624;2023-11-21T02:47:03;7.40;99.90
7196;DHT22;3639;51.308;5.624;2023-11-21T02:49:30;7.50;99.90
7196;DHT22;3639;51.308;5.624;2023-11-21T02:51:56;7.50;99.90
7196;DHT22;3639;51.308;5.624;2023-11-21T02:54:21;7.50;99.90
7196;DHT22;3639;51.308;5.624;2023-11-21T02:56:48;7.60;99.90
7196;DHT22;3639;51.308;5.624;2023-11-21T02:59:15;7.60;99.90
7196;DHT22;3639;51.308;5.624;2023-11-21T03:01:41;7.70;99.90
7196;DHT22;3639;51.308;5.624;2023-11-21T03:04:07;7.80;99.90
7196;DHT22;3639;51.308;5.624;2023-11-21T03:06:32;7.80;99.90
7196;DHT22;3639;51.308;5.624;2023-11-21T03:08:59;7.80;99.90
7196;DHT22;3639;51.308;5.624;2023-11-21T03:11:24;7.80;99.90
7196;DHT22;3639;51.308;5.624;2023-11-21T03:13:50;7.80;99.90
7196;DHT22;3639;51.308;5.624;2023-11-21T03:16:16;7.80;99.90
7196;DHT22;3639;51.308;5.624;2023-11-21T03:18:41;7.80;99.90
7196;DHT22;3639;51.308;5.624;2023-11-21T03:21:07;7.80;99.90
7196;DHT22;3639;51.308;5.624;2023-11-21T03:23:34;7.80;99.90
7196;DHT22;3639;51.308;5.624;2023-11-21T03:26:01;7.80;99.90
7196;DHT22;3639;51.308;5.624;2023-11-21T03:28:26;7.80;99.90
7196;DHT22;3639;51.308;5.624;2023-11-21T03:30:53;7.80;99.90
7196;DHT22;3639;51.308;5.624;2023-11-21T03:33:19;7.80;99.90
7196;DHT22;3639;51.308;5.624;2023-11-21T03:35:44;7.80;99.90
7196;DHT22;3639;51.308;5.624;2023-11-21T03:38:10;7.90;99.90
7196;DHT22;3639;51.308;5.624;2023-11-21T03:40:36;7.90;99.90
7196;DHT22;3639;51.308;5.624;2023-11-21T03:43:01;7.80;99.90
7196;DHT22;3639;51.308;5.624;2023-11-21T03:45:27;7.80;99.90
7196;DHT22;3639;51.308;5.624;2023-11-21T03:47:56;7.80;99.90
7196;DHT22;3639;51.308;5.624;2023-11-21T03:50:21;7.70;99.90
7196;DHT22;3639;51.308;5.624;2023-11-21T03:52:47;7.80;99.90
7196;DHT22;3639;51.308;5.624;2023-11-21T03:55:13;7.80;99.90
7196;DHT22;3639;51.308;5.624;2023-11-21T03:57:38;7.70;99.90
7196;DHT22;3639;51.308;5.624;2023-11-21T04:00:04;7.80;99.90
7196;DHT22;3639;51.308;5.624;2023-11-21T04:02:30;7.70;99.90
7196;DHT22;3639;51.308;5.624;2023-11-21T04:04:57;7.80;99.90
7196;DHT22;3639;51.308;5.624;2023-11-21T04:07:22;7.80;99.90
7196;DHT22;3639;51.308;5.624;2023-11-21T04:09:48;7.80;99.90
7196;DHT22;3639;51.308;5.624;2023-11-21T04:12:14;7.80;99.90
7196;DHT22;3639;51.308;5.624;2023-11-21T04:14:39;7.80;99.90
7196;DHT22;3639;51.308;5.624;2023-11-21T04:17:05;7.70;99.90
7196;DHT22;3639;51.308;5.624;2023-11-21T04:19:30;7.70;99.90
7196;DHT22;3639;51.308;5.624;2023-11-21T04:21:56;7.70;99.90
7196;DHT22;3639;51.308;5.624;2023-11-21T04:24:21;7.70;99.90
7196;DHT22;3639;51.308;5.624;2023-11-21T04:26:47;7.60;99.90
7196;DHT22;3639;51.308;5.624;2023-11-21T04:29:12;7.60;99.90
7196;DHT22;3639;51.308;5.624;2023-11-21T04:31:38;7.60;99.90
7196;DHT22;3639;51.308;5.624;2023-11-21T04:34:04;7.60;99.90
7196;DHT22;3639;51.308;5.624;2023-11-21T04:36:29;7.60;99.90
7196;DHT22;3639;51.308;5.624;2023-11-21T04:38:56;7.60;99.90
7196;DHT22;3639;51.308;5.624;2023-11-21T04:41:22;7.60;99.90
7196;DHT22;3639;51.308;5.624;2023-11-21T04:43:47;7.70;99.90
7196;DHT22;3639;51.308;5.624;2023-11-21T04:46:13;7.70;99.90
7196;DHT22;3639;51.308;5.624;2023-11-21T04:48:39;7.60;99.90
7196;DHT22;3639;51.308;5.624;2023-11-21T04:51:04;7.70;99.90
7196;DHT22;3639;51.308;5.624;2023-11-21T04:53:30;7.80;99.90
7196;DHT22;3639;51.308;5.624;2023-11-21T04:55:55;7.70;99.90
7196;DHT22;3639;51.308;5.624;2023-11-21T04:58:21;7.70;99.90
7196;DHT22;3639;51.308;5.624;2023-11-21T05:00:47;7.70;99.90
7196;DHT22;3639;51.308;5.624;2023-11-21T05:03:12;7.70;99.90
7196;DHT22;3639;51.308;5.624;2023-11-21T05:05:38;7.60;99.90
7196;DHT22;3639;51.308;5.624;2023-11-21T05:08:03;7.70;99.90
7196;DHT22;3639;51.308;5.624;2023-11-21T05:10:30;7.60;99.90
7196;DHT22;3639;51.308;5.624;2023-11-21T05:12:55;7.60;99.90
7196;DHT22;3639;51.308;5.624;2023-11-21T05:15:21;7.60;99.90
7196;DHT22;3639;51.308;5.624;2023-11-21T05:17:47;7.60;99.90
7196;DHT22;3639;51.308;5.624;2023-11-21T05:20:16;7.60;99.90
7196;DHT22;3639;51.308;5.624;2023-11-21T05:22:49;7.60;99.90
7196;DHT22;3639;51.308;5.624;2023-11-21T05:25:14;7.60;99.90
7196;DHT22;3639;51.308;5.624;2023-11-21T05:27:44;7.60;99.90
7196;DHT22;3639;51.308;5.624;2023-11-21T05:30:10;7.60;99.90
7196;DHT22;3639;51.308;5.624;2023-11-21T05:32:38;7.60;99.90
7196;DHT22;3639;51.308;5.624;2023-11-21T05:35:04;7.50;99.90
7196;DHT22;3639;51.308;5.624;2023-11-21T05:37:35;7.50;99.90
7196;DHT22;3639;51.308;5.624;2023-11-21T05:40:01;7.50;99.90
7196;DHT22;3639;51.308;5.624;2023-11-21T05:42:31;7.50;99.90
7196;DHT22;3639;51.308;5.624;2023-11-21T05:44:57;7.60;99.90
7196;DHT22;3639;51.308;5.624;2023-11-21T05:47:24;7.50;99.90
7196;DHT22;3639;51.308;5.624;2023-11-21T05:49:51;7.60;99.90
7196;DHT22;3639;51.308;5.624;2023-11-21T05:52:18;7.60;99.90
7196;DHT22;3639;51.308;5.624;2023-11-21T05:54:43;7.60;99.90
7196;DHT22;3639;51.308;5.624;2023-11-21T05:57:09;7.60;99.90
7196;DHT22;3639;51.308;5.624;2023-11-21T05:59:37;7.60;99.90
7196;DHT22;3639;51.308;5.624;2023-11-21T06:02:03;7.60;99.90
7196;DHT22;3639;51.308;5.624;2023-11-21T06:04:30;7.60;99.90
7196;DHT22;3639;51.308;5.624;2023-11-21T06:06:56;7.60;99.90
7196;DHT22;3639;51.308;5.624;2023-11-21T06:09:21;7.60;99.90
7196;DHT22;3639;51.308;5.624;2023-11-21T06:11:48;7.60;99.90
7196;DHT22;3639;51.308;5.624;2023-11-21T06:14:13;7.60;99.90
7196;DHT22;3639;51.308;5.624;2023-11-21T06:16:40;7.60;99.90
7196;DHT22;3639;51.308;5.624;2023-11-21T06:19:06;7.50;99.90
7196;DHT22;3639;51.308;5.624;2023-11-21T06:21:31;7.60;99.90
7196;DHT22;3639;51.308;5.624;2023-11-21T06:23:58;7.60;99.90
7196;DHT22;3639;51.308;5.624;2023-11-21T06:26:23;7.70;99.90
7196;DHT22;3639;51.308;5.624;2023-11-21T06:28:49;7.60;99.90
7196;DHT22;3639;51.308;5.624;2023-11-21T06:31:16;7.60;99.90
7196;DHT22;3639;51.308;5.624;2023-11-21T06:33:43;7.60;99.90
7196;DHT22;3639;51.308;5.624;2023-11-21T06:36:09;7.70;99.90
7196;DHT22;3639;51.308;5.624;2023-11-21T06:38:37;7.60;99.90
7196;DHT22;3639;51.308;5.624;2023-11-21T06:41:02;7.70;99.90
7196;DHT22;3639;51.308;5.624;2023-11-21T06:43:29;7.70;99.90
7196;DHT22;3639;51.308;5.624;2023-11-21T06:45:56;7.60;99.90
7196;DHT22;3639;51.308;5.624;2023-11-21T06:48:22;7.70;99.90
7196;DHT22;3639;51.308;5.624;2023-11-21T06:50:48;7.70;99.90
7196;DHT22;3639;51.308;5.624;2023-11-21T06:53:13;7.70;99.90
7196;DHT22;3639;51.308;5.624;2023-11-21T06:55:39;7.80;99.90
7196;DHT22;3639;51.308;5.624;2023-11-21T06:58:04;7.80;99.90
7196;DHT22;3639;51.308;5.624;2023-11-21T07:00:30;7.80;99.90
7196;DHT22;3639;51.308;5.624;2023-11-21T07:02:56;7.80;99.90
7196;DHT22;3639;51.308;5.624;2023-11-21T07:05:22;7.80;99.90
7196;DHT22;3639;51.308;5.624;2023-11-21T07:07:48;7.80;99.90
7196;DHT22;3639;51.308;5.624;2023-11-21T07:10:14;7.80;99.90
7196;DHT22;3639;51.308;5.624;2023-11-21T07:12:40;7.80;99.90
7196;DHT22;3639;51.308;5.624;2023-11-21T07:15:07;7.80;99.90
7196;DHT22;3639;51.308;5.624;2023-11-21T07:17:35;7.80;99.90
7196;DHT22;3639;51.308;5.624;2023-11-21T07:20:01;7.80;99.90
7196;DHT22;3639;51.308;5.624;2023-11-21T07:22:27;7.80;99.90
7196;DHT22;3639;51.308;5.624;2023-11-21T07:24:52;7.80;99.90
7196;DHT22;3639;51.308;5.624;2023-11-21T07:27:18;7.90;99.90
7196;DHT22;3639;51.308;5.624;2023-11-21T07:29:44;8.00;99.90
7196;DHT22;3639;51.308;5.624;2023-11-21T07:32:09;8.00;99.90
7196;DHT22;3639;51.308;5.624;2023-11-21T07:34:36;8.00;99.90
7196;DHT22;3639;51.308;5.624;2023-11-21T07:37:02;8.00;99.90
7196;DHT22;3639;51.308;5.624;2023-11-21T07:39:28;8.00;99.90
7196;DHT22;3639;51.308;5.624;2023-11-21T07:41:53;8.00;99.90
7196;DHT22;3639;51.308;5.624;2023-11-21T07:44:19;8.00;99.90
7196;DHT22;3639;51.308;5.624;2023-11-21T07:46:45;8.00;99.90
7196;DHT22;3639;51.308;5.624;2023-11-21T07:49:11;8.10;99.90
7196;DHT22;3639;51.308;5.624;2023-11-21T07:51:37;8.00;99.90
7196;DHT22;3639;51.308;5.624;2023-11-21T07:54:02;8.10;99.90
7196;DHT22;3639;51.308;5.624;2023-11-21T07:56:28;8.00;99.90
7196;DHT22;3639;51.308;5.624;2023-11-21T07:58:53;8.00;99.90
7196;DHT22;3639;51.308;5.624;2023-11-21T08:01:19;8.10;99.90
7196;DHT22;3639;51.308;5.624;2023-11-21T08:03:45;8.20;99.90
7196;DHT22;3639;51.308;5.624;2023-11-21T08:06:10;8.10;99.90
7196;DHT22;3639;51.308;5.624;2023-11-21T08:08:37;8.10;99.90
7196;DHT22;3639;51.308;5.624;2023-11-21T08:11:03;8.10;99.90
7196;DHT22;3639;51.308;5.624;2023-11-21T08:13:29;8.20;99.90
7196;DHT22;3639;51.308;5.624;2023-11-21T08:15:58;8.20;99.90
7196;DHT22;3639;51.308;5.624;2023-11-21T08:18:28;8.20;99.90
7196;DHT22;3639;51.308;5.624;2023-11-21T08:20:54;8.30;99.90
7196;DHT22;3639;51.308;5.624;2023-11-21T08:23:20;8.30;99.90
7196;DHT22;3639;51.308;5.624;2023-11-21T08:25:46;8.30;99.90
7196;DHT22;3639;51.308;5.624;2023-11-21T08:28:12;8.30;99.90
7196;DHT22;3639;51.308;5.624;2023-11-21T08:30:42;8.40;99.90
7196;DHT22;3639;51.308;5.624;2023-11-21T08:33:08;8.40;99.90
7196;DHT22;3639;51.308;5.624;2023-11-21T08:35:37;8.40;99.90
7196;DHT22;3639;51.308;5.624;2023-11-21T08:38:03;8.40;99.90
7196;DHT22;3639;51.308;5.624;2023-11-21T08:40:29;8.40;99.90
7196;DHT22;3639;51.308;5.624;2023-11-21T08:42:55;8.40;99.90
7196;DHT22;3639;51.308;5.624;2023-11-21T08:45:23;8.50;99.90
7196;DHT22;3639;51.308;5.624;2023-11-21T08:47:50;8.50;99.90
7196;DHT22;3639;51.308;5.624;2023-11-21T08:50:16;8.50;99.90
7196;DHT22;3639;51.308;5.624;2023-11-21T08:52:42;8.60;99.90
7196;DHT22;3639;51.308;5.624;2023-11-21T08:55:08;8.70;99.90
7196;DHT22;3639;51.308;5.624;2023-11-21T08:57:37;8.70;99.90
7196;DHT22;3639;51.308;5.624;2023-11-21T09:00:04;8.70;99.90
7196;DHT22;3639;51.308;5.624;2023-11-21T09:02:33;8.80;99.90
7196;DHT22;3639;51.308;5.624;2023-11-21T09:05:00;8.80;99.90
7196;DHT22;3639;51.308;5.624;2023-11-21T09:07:28;8.80;99.90
7196;DHT22;3639;51.308;5.624;2023-11-21T09:09:54;8.90;99.90
7196;DHT22;3639;51.308;5.624;2023-11-21T09:12:20;8.90;99.90
7196;DHT22;3639;51.308;5.624;2023-11-21T09:14:46;8.90;99.90
7196;DHT22;3639;51.308;5.624;2023-11-21T09:17:11;8.90;99.90
7196;DHT22;3639;51.308;5.624;2023-11-21T09:19:38;8.90;99.90
7196;DHT22;3639;51.308;5.624;2023-11-21T09:22:04;9.00;99.90
7196;DHT22;3639;51.308;5.624;2023-11-21T09:24:31;9.10;99.90
7196;DHT22;3639;51.308;5.624;2023-11-21T09:26:56;9.10;99.90
7196;DHT22;3639;51.308;5.624;2023-11-21T09:29:22;9.10;99.90
7196;DHT22;3639;51.308;5.624;2023-11-21T09:31:48;9.20;99.90
7196;DHT22;3639;51.308;5.624;2023-11-21T09:34:15;9.20;99.90
7196;DHT22;3639;51.308;5.624;2023-11-21T09:36:40;9.20;99.90
7196;DHT22;3639;51.308;5.624;2023-11-21T09:39:06;9.30;99.90
7196;DHT22;3639;51.308;5.624;2023-11-21T09:41:46;9.30;99.90
7196;DHT22;3639;51.308;5.624;2023-11-21T09:44:18;9.30;99.90
7196;DHT22;3639;51.308;5.624;2023-11-21T09:46:44;9.30;99.90
7196;DHT22;3639;51.308;5.624;2023-11-21T09:49:14;9.40;99.90
7196;DHT22;3639;51.308;5.624;2023-11-21T09:51:43;9.40;99.90
7196;DHT22;3639;51.308;5.624;2023-11-21T09:54:10;9.40;99.90
7196;DHT22;3639;51.308;5.624;2023-11-21T09:56:37;9.50;99.90
7196;DHT22;3639;51.308;5.624;2023-11-21T09:59:03;9.50;99.90
7196;DHT22;3639;51.308;5.624;2023-11-21T10:01:36;9.60;99.90
7196;DHT22;3639;51.308;5.624;2023-11-21T10:04:02;9.60;99.90
7196;DHT22;3639;51.308;5.624;2023-11-21T10:06:28;9.60;99.90
7196;DHT22;3639;51.308;5.624;2023-11-21T10:08:55;9.70;99.90
7196;DHT22;3639;51.308;5.624;2023-11-21T10:11:24;9.70;99.90
7196;DHT22;3639;51.308;5.624;2023-11-21T10:13:53;9.70;99.90
7196;DHT22;3639;51.308;5.624;2023-11-21T10:16:20;9.80;99.90
7196;DHT22;3639;51.308;5.624;2023-11-21T10:18:49;9.80;99.90
7196;DHT22;3639;51.308;5.624;2023-11-21T10:21:18;9.90;99.90
7196;DHT22;3639;51.308;5.624;2023-11-21T10:23:44;9.90;99.90
7196;DHT22;3639;51.308;5.624;2023-11-21T10:26:12;9.90;99.90
7196;DHT22;3639;51.308;5.624;2023-11-21T10:29:02;9.90;99.90
7196;DHT22;3639;51.308;5.624;2023-11-21T10:31:30;9.90;99.90
7196;DHT22;3639;51.308;5.624;2023-11-21T10:34:13;9.90;99.90
7196;DHT22;3639;51.308;5.624;2023-11-21T10:36:39;9.90;99.90
7196;DHT22;3639;51.308;5.624;2023-11-21T10:39:05;10.00;99.90
7196;DHT22;3639;51.308;5.624;2023-11-21T10:41:30;10.00;99.90
7196;DHT22;3639;51.308;5.624;2023-11-21T10:43:56;10.00;99.90
7196;DHT22;3639;51.308;5.624;2023-11-21T10:46:22;10.00;99.90
7196;DHT22;3639;51.308;5.624;2023-11-21T10:48:53;10.00;99.90
7196;DHT22;3639;51.308;5.624;2023-11-21T10:51:20;10.00;99.90
7196;DHT22;3639;51.308;5.624;2023-11-21T10:53:46;10.00;99.90
7196;DHT22;3639;51.308;5.624;2023-11-21T10:56:14;10.00;99.90
7196;DHT22;3639;51.308;5.624;2023-11-21T10:58:45;10.00;99.90
7196;DHT22;3639;51.308;5.624;2023-11-21T11:01:11;10.00;99.90
7196;DHT22;3639;51.308;5.624;2023-11-21T11:03:39;10.10;99.90
7196;DHT22;3639;51.308;5.624;2023-11-21T11:06:07;10.10;99.90
7196;DHT22;3639;51.308;5.624;2023-11-21T11:08:37;10.20;99.90
7196;DHT22;3639;51.308;5.624;2023-11-21T11:11:05;10.20;99.90
7196;DHT22;3639;51.308;5.624;2023-11-21T11:13:31;10.20;99.90
7196;DHT22;3639;51.308;5.624;2023-11-21T11:16:01;10.20;99.90
7196;DHT22;3639;51.308;5.624;2023-11-21T11:18:28;10.20;99.90
7196;DHT22;3639;51.308;5.624;2023-11-21T11:21:01;10.20;99.90
7196;DHT22;3639;51.308;5.624;2023-11-21T11:23:34;10.20;99.90
7196;DHT22;3639;51.308;5.624;2023-11-21T11:28:57;10.30;99.90
7196;DHT22;3639;51.308;5.624;2023-11-21T11:31:52;10.30;99.90
7196;DHT22;3639;51.308;5.624;2023-11-21T11:34:28;10.30;99.90
7196;DHT22;3639;51.308;5.624;2023-11-21T11:37:01;10.30;99.90
7196;DHT22;3639;51.308;5.624;2023-11-21T11:41:56;10.20;99.90
7196;DHT22;3639;51.308;5.624;2023-11-21T11:44:47;10.20;99.90
7196;DHT22;3639;51.308;5.624;2023-11-21T11:52:53;10.20;99.90
7196;DHT22;3639;51.308;5.624;2023-11-21T11:55:24;10.10;99.90
7196;DHT22;3639;51.308;5.624;2023-11-21T11:57:50;10.10;99.90
7196;DHT22;3639;51.308;5.624;2023-11-21T12:00:17;10.10;99.90
7196;DHT22;3639;51.308;5.624;2023-11-21T12:02:51;10.10;99.90
7196;DHT22;3639;51.308;5.624;2023-11-21T12:05:21;10.00;99.90
7196;DHT22;3639;51.308;5.624;2023-11-21T12:07:56;10.10;99.90
7196;DHT22;3639;51.308;5.624;2023-11-21T12:10:27;10.10;99.90
7196;DHT22;3639;51.308;5.624;2023-11-21T12:12:55;10.10;99.90
7196;DHT22;3639;51.308;5.624;2023-11-21T12:15:21;10.10;99.90
7196;DHT22;3639;51.308;5.624;2023-11-21T12:17:48;10.10;99.90
7196;DHT22;3639;51.308;5.624;2023-11-21T12:20:21;10.10;99.90
7196;DHT22;3639;51.308;5.624;2023-11-21T12:22:55;10.10;99.90
7196;DHT22;3639;51.308;5.624;2023-11-21T12:25:23;10.10;99.90
7196;DHT22;3639;51.308;5.624;2023-11-21T12:27:51;10.20;99.90
7196;DHT22;3639;51.308;5.624;2023-11-21T12:30:19;10.30;99.90
7196;DHT22;3639;51.308;5.624;2023-11-21T12:32:48;10.50;99.90
7196;DHT22;3639;51.308;5.624;2023-11-21T12:35:14;10.50;99.90
7196;DHT22;3639;51.308;5.624;2023-11-21T12:37:41;10.50;99.90
7196;DHT22;3639;51.308;5.624;2023-11-21T12:40:10;10.40;99.90
7196;DHT22;3639;51.308;5.624;2023-11-21T12:42:45;10.40;99.90
7196;DHT22;3639;51.308;5.624;2023-11-21T12:45:18;10.30;99.90
7196;DHT22;3639;51.308;5.624;2023-11-21T12:47:46;10.40;99.90
7196;DHT22;3639;51.308;5.624;2023-11-21T12:50:12;10.40;99.90
7196;DHT22;3639;51.308;5.624;2023-11-21T12:52:44;10.40;99.90
7196;DHT22;3639;51.308;5.624;2023-11-21T12:55:20;10.40;99.90
7196;DHT22;3639;51.308;5.624;2023-11-21T12:57:54;10.40;99.90
7196;DHT22;3639;51.308;5.624;2023-11-21T13:00:20;10.40;99.90
7196;DHT22;3639;51.308;5.624;2023-11-21T13:02:56;10.40;99.90
7196;DHT22;3639;51.308;5.624;2023-11-21T13:05:28;10.40;99.90
7196;DHT22;3639;51.308;5.624;2023-11-21T13:07:59;10.40;99.90
7196;DHT22;3639;51.308;5.624;2023-11-21T13:10:28;10.40;99.90
7196;DHT22;3639;51.308;5.624;2023-11-21T13:13:00;10.30;99.90
7196;DHT22;3639;51.308;5.624;2023-11-21T13:15:29;10.20;99.90
7196;DHT22;3639;51.308;5.624;2023-11-21T13:17:57;10.20;99.90
7196;DHT22;3639;51.308;5.624;2023-11-21T13:20:24;10.20;99.90
7196;DHT22;3639;51.308;5.624;2023-11-21T13:22:51;10.20;99.90
7196;DHT22;3639;51.308;5.624;2023-11-21T13:25:23;10.20;99.90
7196;DHT22;3639;51.308;5.624;2023-11-21T13:27:49;10.10;99.90
7196;DHT22;3639;51.308;5.624;2023-11-21T13:30:15;10.20;99.90
7196;DHT22;3639;51.308;5.624;2023-11-21T13:32:44;10.20;99.90
7196;DHT22;3639;51.308;5.624;2023-11-21T13:35:17;10.10;99.90
7196;DHT22;3639;51.308;5.624;2023-11-21T13:38:10;10.10;99.90
7196;DHT22;3639;51.308;5.624;2023-11-21T13:40:37;10.10;99.90
7196;DHT22;3639;51.308;5.624;2023-11-21T13:43:09;10.10;99.90
7196;DHT22;3639;51.308;5.624;2023-11-21T13:45:41;10.10;99.90
7196;DHT22;3639;51.308;5.624;2023-11-21T13:48:08;10.10;99.90
7196;DHT22;3639;51.308;5.624;2023-11-21T13:50:43;10.10;99.90
7196;DHT22;3639;51.308;5.624;2023-11-21T13:53:14;10.10;99.90
7196;DHT22;3639;51.308;5.624;2023-11-21T13:55:52;10.10;99.90
7196;DHT22;3639;51.308;5.624;2023-11-21T13:58:23;10.10;99.90
7196;DHT22;3639;51.308;5.624;2023-11-21T14:00:54;10.10;99.90
7196;DHT22;3639;51.308;5.624;2023-11-21T14:03:23;10.10;99.90
7196;DHT22;3639;51.308;5.624;2023-11-21T14:06:03;10.10;99.90
7196;DHT22;3639;51.308;5.624;2023-11-21T14:08:34;10.10;99.90
7196;DHT22;3639;51.308;5.624;2023-11-21T14:10:59;10.10;99.90
7196;DHT22;3639;51.308;5.624;2023-11-21T14:13:28;10.20;99.90
7196;DHT22;3639;51.308;5.624;2023-11-21T14:15:53;10.20;99.90
7196;DHT22;3639;51.308;5.624;2023-11-21T14:18:26;10.10;99.90
7196;DHT22;3639;51.308;5.624;2023-11-21T14:21:16;10.10;99.90
7196;DHT22;3639;51.308;5.624;2023-11-21T14:23:42;10.10;99.90
7196;DHT22;3639;51.308;5.624;2023-11-21T14:26:08;10.00;99.90
7196;DHT22;3639;51.308;5.624;2023-11-21T14:28:34;10.00;99.90
7196;DHT22;3639;51.308;5.624;2023-11-21T14:31:01;10.00;99.90
7196;DHT22;3639;51.308;5.624;2023-11-21T14:33:27;10.00;99.90
7196;DHT22;3639;51.308;5.624;2023-11-21T14:35:53;10.00;99.90
7196;DHT22;3639;51.308;5.624;2023-11-21T14:38:18;10.00;99.90
7196;DHT22;3639;51.308;5.624;2023-11-21T14:40:44;10.00;99.90
7196;DHT22;3639;51.308;5.624;2023-11-21T14:43:10;10.00;99.90
7196;DHT22;3639;51.308;5.624;2023-11-21T14:45:35;10.00;99.90
7196;DHT22;3639;51.308;5.624;2023-11-21T14:48:01;10.00;99.90
7196;DHT22;3639;51.308;5.624;2023-11-21T14:50:29;10.00;99.90
7196;DHT22;3639;51.308;5.624;2023-11-21T14:53:09;10.00;99.90
7196;DHT22;3639;51.308;5.624;2023-11-21T14:55:36;10.00;99.90
7196;DHT22;3639;51.308;5.624;2023-11-21T14:58:20;10.00;99.90
7196;DHT22;3639;51.308;5.624;2023-11-21T15:01:00;10.00;99.90
7196;DHT22;3639;51.308;5.624;2023-11-21T15:03:28;10.00;99.90
7196;DHT22;3639;51.308;5.624;2023-11-21T15:06:09;10.00;99.90
7196;DHT22;3639;51.308;5.624;2023-11-21T15:08:52;10.00;99.90
7196;DHT22;3639;51.308;5.624;2023-11-21T15:11:22;10.00;99.90
7196;DHT22;3639;51.308;5.624;2023-11-21T15:13:56;10.00;99.90
7196;DHT22;3639;51.308;5.624;2023-11-21T15:16:21;10.00;99.90
7196;DHT22;3639;51.308;5.624;2023-11-21T15:18:47;10.00;99.90
7196;DHT22;3639;51.308;5.624;2023-11-21T15:21:12;10.00;99.90
7196;DHT22;3639;51.308;5.624;2023-11-21T15:23:38;10.00;99.90
7196;DHT22;3639;51.308;5.624;2023-11-21T15:26:06;10.00;99.90
7196;DHT22;3639;51.308;5.624;2023-11-21T15:28:34;10.00;99.90
7196;DHT22;3639;51.308;5.624;2023-11-21T15:30:59;10.10;99.90
7196;DHT22;3639;51.308;5.624;2023-11-21T15:33:25;10.10;99.90
7196;DHT22;3639;51.308;5.624;2023-11-21T15:35:52;10.10;99.90
7196;DHT22;3639;51.308;5.624;2023-11-21T15:38:19;10.00;99.90
7196;DHT22;3639;51.308;5.624;2023-11-21T15:40:45;10.00;99.90
7196;DHT22;3639;51.308;5.624;2023-11-21T15:43:11;10.10;99.90
7196;DHT22;3639;51.308;5.624;2023-11-21T15:45:38;10.00;99.90
7196;DHT22;3639;51.308;5.624;2023-11-21T15:48:07;10.00;99.90
7196;DHT22;3639;51.308;5.624;2023-11-21T15:50:34;10.10;99.90
7196;DHT22;3639;51.308;5.624;2023-11-21T15:53:01;10.10;99.90
7196;DHT22;3639;51.308;5.624;2023-11-21T15:55:28;10.00;99.90
7196;DHT22;3639;51.308;5.624;2023-11-21T15:57:54;10.00;99.90
7196;DHT22;3639;51.308;5.624;2023-11-21T16:00:19;10.00;99.90
7196;DHT22;3639;51.308;5.624;2023-11-21T16:02:47;10.00;99.90
7196;DHT22;3639;51.308;5.624;2023-11-21T16:05:13;9.90;99.90
7196;DHT22;3639;51.308;5.624;2023-11-21T16:07:40;9.90;99.90
7196;DHT22;3639;51.308;5.624;2023-11-21T16:10:07;9.80;99.90
7196;DHT22;3639;51.308;5.624;2023-11-21T16:12:39;9.80;99.90
7196;DHT22;3639;51.308;5.624;2023-11-21T16:15:06;9.80;99.90
7196;DHT22;3639;51.308;5.624;2023-11-21T16:17:36;9.80;99.90
7196;DHT22;3639;51.308;5.624;2023-11-21T16:20:05;9.70;99.90
7196;DHT22;3639;51.308;5.624;2023-11-21T16:22:38;9.80;99.90
7196;DHT22;3639;51.308;5.624;2023-11-21T16:25:05;9.80;99.90